sensor_id;sensor_type;location;lat;lon;timestamp;temperature;humidity
40291;DHT22;26000;48.304;13.626;2022-08-01T00:02:02;21.30;99.90
40291;DHT22;26000;48.304;13.626;2022-08-01T00:04:27;21.20;99.90
40291;DHT22;26000;48.304;13.626;2022-08-01T00:06:53;21.30;99.90
40291;DHT22;26000;48.304;13.626;2022-08-01T00:09:19;21.30;99.90
40291;DHT22;26000;48.304;13.626;2022-08-01T00:11:44;21.30;99.90
40291;DHT22;26000;48.304;13.626;2022-08-01T00:14:10;21.30;99.90
40291;DHT22;26000;48.304;13.626;2022-08-01T00:16:36;21.30;99.90
40291;DHT22;26000;48.304;13.626;2022-08-01T00:19:03;21.30;99.90
40291;DHT22;26000;48.304;13.626;2022-08-01T00:21:28;21.40;99.90
40291;DHT22;26000;48.304;13.626;2022-08-01T00:23:54;21.40;99.90
40291;DHT22;26000;48.304;13.626;2022-08-01T00:26:20;21.30;99.90
40291;DHT22;26000;48.304;13.626;2022-08-01T00:28:46;21.30;99.90
40291;DHT22;26000;48.304;13.626;2022-08-01T00:31:11;21.30;99.90
40291;DHT22;26000;48.304;13.626;2022-08-01T00:33:37;21.30;99.90
40291;DHT22;26000;48.304;13.626;2022-08-01T00:36:03;21.20;99.90
40291;DHT22;26000;48.304;13.626;2022-08-01T00:38:28;21.20;99.90
40291;DHT22;26000;48.304;13.626;2022-08-01T00:40:54;21.20;99.90
40291;DHT22;26000;48.304;13.626;2022-08-01T00:43:20;21.20;99.90
40291;DHT22;26000;48.304;13.626;2022-08-01T00:45:45;21.20;99.90
40291;DHT22;26000;48.304;13.626;2022-08-01T00:48:11;21.20;99.90
40291;DHT22;26000;48.304;13.626;2022-08-01T00:50:37;21.20;99.90
40291;DHT22;26000;48.304;13.626;2022-08-01T00:53:04;21.10;99.90
40291;DHT22;26000;48.304;13.626;2022-08-01T00:55:31;21.10;99.90
40291;DHT22;26000;48.304;13.626;2022-08-01T00:57:58;21.10;99.90
40291;DHT22;26000;48.304;13.626;2022-08-01T01:00:24;21.00;99.90
40291;DHT22;26000;48.304;13.626;2022-08-01T01:02:50;21.00;99.90
40291;DHT22;26000;48.304;13.626;2022-08-01T01:05:15;21.00;99.90
40291;DHT22;26000;48.304;13.626;2022-08-01T01:08:02;21.00;99.90
40291;DHT22;26000;48.304;13.626;2022-08-01T01:13:31;20.90;99.90
40291;DHT22;26000;48.304;13.626;2022-08-01T01:16:01;20.90;99.90
40291;DHT22;26000;48.304;13.626;2022-08-01T01:18:46;20.90;99.90
40291;DHT22;26000;48.304;13.626;2022-08-01T01:24:25;20.90;99.90
40291;DHT22;26000;48.304;13.626;2022-08-01T01:27:01;20.90;99.90
40291;DHT22;26000;48.304;13.626;2022-08-01T01:29:51;20.80;99.90
40291;DHT22;26000;48.304;13.626;2022-08-01T01:34:54;20.70;99.90
40291;DHT22;26000;48.304;13.626;2022-08-01T01:37:22;20.70;99.90
40291;DHT22;26000;48.304;13.626;2022-08-01T01:39:50;20.70;99.90
40291;DHT22;26000;48.304;13.626;2022-08-01T01:42:18;20.70;99.90
40291;DHT22;26000;48.304;13.626;2022-08-01T01:44:46;20.80;99.90
40291;DHT22;26000;48.304;13.626;2022-08-01T01:47:13;20.80;99.90
40291;DHT22;26000;48.304;13.626;2022-08-01T01:49:40;20.70;99.90
40291;DHT22;26000;48.304;13.626;2022-08-01T01:52:07;20.70;99.90
40291;DHT22;26000;48.304;13.626;2022-08-01T01:54:37;20.70;99.90
40291;DHT22;26000;48.304;13.626;2022-08-01T01:57:05;20.70;99.90
40291;DHT22;26000;48.304;13.626;2022-08-01T01:59:34;20.70;99.90
40291;DHT22;26000;48.304;13.626;2022-08-01T02:02:04;20.70;99.90
40291;DHT22;26000;48.304;13.626;2022-08-01T02:04:32;20.80;99.90
40291;DHT22;26000;48.304;13.626;2022-08-01T02:07:00;20.70;99.90
40291;DHT22;26000;48.304;13.626;2022-08-01T02:09:28;20.70;99.90
40291;DHT22;26000;48.304;13.626;2022-08-01T02:11:55;20.70;99.90
40291;DHT22;26000;48.304;13.626;2022-08-01T02:14:22;20.60;99.90
40291;DHT22;26000;48.304;13.626;2022-08-01T02:16:50;20.60;99.90
40291;DHT22;26000;48.304;13.626;2022-08-01T02:19:19;20.60;99.90
40291;DHT22;26000;48.304;13.626;2022-08-01T02:21:57;20.60;99.90
40291;DHT22;26000;48.304;13.626;2022-08-01T02:27:13;20.70;99.90
40291;DHT22;26000;48.304;13.626;2022-08-01T02:29:59;20.60;99.90
40291;DHT22;26000;48.304;13.626;2022-08-01T02:32:31;20.60;99.90
40291;DHT22;26000;48.304;13.626;2022-08-01T02:35:00;20.60;99.90
40291;DHT22;26000;48.304;13.626;2022-08-01T02:37:27;20.60;99.90
40291;DHT22;26000;48.304;13.626;2022-08-01T02:39:54;20.60;99.90
40291;DHT22;26000;48.304;13.626;2022-08-01T02:42:22;20.60;99.90
40291;DHT22;26000;48.304;13.626;2022-08-01T02:44:50;20.60;99.90
40291;DHT22;26000;48.304;13.626;2022-08-01T02:47:20;20.50;99.90
40291;DHT22;26000;48.304;13.626;2022-08-01T02:49:47;20.50;99.90
40291;DHT22;26000;48.304;13.626;2022-08-01T02:52:16;20.60;99.90
40291;DHT22;26000;48.304;13.626;2022-08-01T02:54:44;20.60;99.90
40291;DHT22;26000;48.304;13.626;2022-08-01T02:57:12;20.50;99.90
40291;DHT22;26000;48.304;13.626;2022-08-01T02:59:39;20.50;99.90
40291;DHT22;26000;48.304;13.626;2022-08-01T03:02:06;20.40;99.90
40291;DHT22;26000;48.304;13.626;2022-08-01T03:04:34;20.40;99.90
40291;DHT22;26000;48.304;13.626;2022-08-01T03:07:02;20.40;99.90
40291;DHT22;26000;48.304;13.626;2022-08-01T03:09:30;20.40;99.90
40291;DHT22;26000;48.304;13.626;2022-08-01T03:11:59;20.50;99.90
40291;DHT22;26000;48.304;13.626;2022-08-01T03:14:26;20.40;99.90
40291;DHT22;26000;48.304;13.626;2022-08-01T03:16:54;20.40;99.90
40291;DHT22;26000;48.304;13.626;2022-08-01T03:19:24;20.40;99.90
40291;DHT22;26000;48.304;13.626;2022-08-01T03:21:51;20.40;99.90
40291;DHT22;26000;48.304;13.626;2022-08-01T03:24:18;20.40;99.90
40291;DHT22;26000;48.304;13.626;2022-08-01T03:26:45;20.40;99.90
40291;DHT22;26000;48.304;13.626;2022-08-01T03:29:17;20.30;99.90
40291;DHT22;26000;48.304;13.626;2022-08-01T03:31:46;20.30;99.90
40291;DHT22;26000;48.304;13.626;2022-08-01T03:34:13;20.30;99.90
40291;DHT22;26000;48.304;13.626;2022-08-01T03:36:48;20.30;99.90
40291;DHT22;26000;48.304;13.626;2022-08-01T03:39:16;20.20;99.90
40291;DHT22;26000;48.304;13.626;2022-08-01T03:41:47;20.20;99.90
40291;DHT22;26000;48.304;13.626;2022-08-01T03:44:15;20.20;99.90
40291;DHT22;26000;48.304;13.626;2022-08-01T03:46:48;20.10;99.90
40291;DHT22;26000;48.304;13.626;2022-08-01T03:49:18;20.10;99.90
40291;DHT22;26000;48.304;13.626;2022-08-01T03:51:47;20.10;99.90
40291;DHT22;26000;48.304;13.626;2022-08-01T03:54:16;20.10;99.90
40291;DHT22;26000;48.304;13.626;2022-08-01T03:56:43;20.00;99.90
40291;DHT22;26000;48.304;13.626;2022-08-01T03:59:11;20.00;99.90
40291;DHT22;26000;48.304;13.626;2022-08-01T04:01:37;19.90;99.90
40291;DHT22;26000;48.304;13.626;2022-08-01T04:04:03;20.00;99.90
40291;DHT22;26000;48.304;13.626;2022-08-01T04:06:31;20.00;99.90
40291;DHT22;26000;48.304;13.626;2022-08-01T04:08:56;20.00;99.90
40291;DHT22;26000;48.304;13.626;2022-08-01T04:11:26;20.00;99.90
40291;DHT22;26000;48.304;13.626;2022-08-01T04:13:53;20.00;99.90
40291;DHT22;26000;48.304;13.626;2022-08-01T04:16:20;20.10;99.90
40291;DHT22;26000;48.304;13.626;2022-08-01T04:18:46;20.10;99.90
40291;DHT22;26000;48.304;13.626;2022-08-01T04:21:13;20.10;99.90
40291;DHT22;26000;48.304;13.626;2022-08-01T04:23:41;20.10;99.90
40291;DHT22;26000;48.304;13.626;2022-08-01T04:26:09;20.20;99.90
40291;DHT22;26000;48.304;13.626;2022-08-01T04:28:37;20.40;99.90
40291;DHT22;26000;48.304;13.626;2022-08-01T04:31:06;21.10;99.90
40291;DHT22;26000;48.304;13.626;2022-08-01T04:33:35;21.90;99.90
40291;DHT22;26000;48.304;13.626;2022-08-01T04:36:06;22.40;99.90
40291;DHT22;26000;48.304;13.626;2022-08-01T04:38:34;22.30;99.90
40291;DHT22;26000;48.304;13.626;2022-08-01T04:41:05;22.00;99.90
40291;DHT22;26000;48.304;13.626;2022-08-01T04:43:32;21.70;99.90
40291;DHT22;26000;48.304;13.626;2022-08-01T04:45:58;21.30;99.90
40291;DHT22;26000;48.304;13.626;2022-08-01T04:48:24;21.10;99.90
40291;DHT22;26000;48.304;13.626;2022-08-01T04:50:51;21.00;99.90
40291;DHT22;26000;48.304;13.626;2022-08-01T04:53:19;21.00;99.90
40291;DHT22;26000;48.304;13.626;2022-08-01T04:55:47;20.90;99.90
40291;DHT22;26000;48.304;13.626;2022-08-01T04:58:14;21.00;99.90
40291;DHT22;26000;48.304;13.626;2022-08-01T05:00:40;20.90;99.90
40291;DHT22;26000;48.304;13.626;2022-08-01T05:03:06;20.90;99.90
40291;DHT22;26000;48.304;13.626;2022-08-01T05:05:31;21.00;99.90
40291;DHT22;26000;48.304;13.626;2022-08-01T05:07:57;21.00;99.90
40291;DHT22;26000;48.304;13.626;2022-08-01T05:10:23;21.10;99.90
40291;DHT22;26000;48.304;13.626;2022-08-01T05:12:49;21.10;99.90
40291;DHT22;26000;48.304;13.626;2022-08-01T05:15:14;21.10;99.90
40291;DHT22;26000;48.304;13.626;2022-08-01T05:17:41;21.00;99.90
40291;DHT22;26000;48.304;13.626;2022-08-01T05:20:07;21.10;99.90
40291;DHT22;26000;48.304;13.626;2022-08-01T05:22:33;21.20;99.90
40291;DHT22;26000;48.304;13.626;2022-08-01T05:24:59;21.20;99.90
40291;DHT22;26000;48.304;13.626;2022-08-01T05:27:25;21.30;99.90
40291;DHT22;26000;48.304;13.626;2022-08-01T05:29:51;21.40;99.90
40291;DHT22;26000;48.304;13.626;2022-08-01T05:32:17;21.50;99.90
40291;DHT22;26000;48.304;13.626;2022-08-01T05:34:42;21.60;99.90
40291;DHT22;26000;48.304;13.626;2022-08-01T05:37:09;21.60;99.90
40291;DHT22;26000;48.304;13.626;2022-08-01T05:39:35;21.70;99.90
40291;DHT22;26000;48.304;13.626;2022-08-01T05:42:00;21.70;99.90
40291;DHT22;26000;48.304;13.626;2022-08-01T05:44:26;21.80;99.90
40291;DHT22;26000;48.304;13.626;2022-08-01T05:46:52;21.90;99.90
40291;DHT22;26000;48.304;13.626;2022-08-01T05:49:17;22.00;99.90
40291;DHT22;26000;48.304;13.626;2022-08-01T05:51:43;22.00;99.90
40291;DHT22;26000;48.304;13.626;2022-08-01T05:54:09;22.00;99.90
40291;DHT22;26000;48.304;13.626;2022-08-01T05:56:34;22.00;99.90
40291;DHT22;26000;48.304;13.626;2022-08-01T05:59:00;22.10;99.90
40291;DHT22;26000;48.304;13.626;2022-08-01T06:01:26;22.10;99.90
40291;DHT22;26000;48.304;13.626;2022-08-01T06:03:51;22.30;99.90
40291;DHT22;26000;48.304;13.626;2022-08-01T06:06:20;22.20;99.90
40291;DHT22;26000;48.304;13.626;2022-08-01T06:08:46;22.20;99.90
40291;DHT22;26000;48.304;13.626;2022-08-01T06:11:11;22.20;99.90
40291;DHT22;26000;48.304;13.626;2022-08-01T06:13:37;22.20;99.90
40291;DHT22;26000;48.304;13.626;2022-08-01T06:16:03;22.10;99.90
40291;DHT22;26000;48.304;13.626;2022-08-01T06:18:28;22.30;99.90
40291;DHT22;26000;48.304;13.626;2022-08-01T06:20:54;22.70;99.90
40291;DHT22;26000;48.304;13.626;2022-08-01T06:23:21;23.30;99.90
40291;DHT22;26000;48.304;13.626;2022-08-01T06:25:46;23.70;99.90
40291;DHT22;26000;48.304;13.626;2022-08-01T06:28:13;24.10;99.90
40291;DHT22;26000;48.304;13.626;2022-08-01T06:30:38;24.70;99.60
40291;DHT22;26000;48.304;13.626;2022-08-01T06:33:04;25.20;99.20
40291;DHT22;26000;48.304;13.626;2022-08-01T06:35:30;25.80;98.20
40291;DHT22;26000;48.304;13.626;2022-08-01T06:37:57;25.90;98.00
40291;DHT22;26000;48.304;13.626;2022-08-01T06:40:22;25.90;97.50
40291;DHT22;26000;48.304;13.626;2022-08-01T06:42:48;25.90;97.90
40291;DHT22;26000;48.304;13.626;2022-08-01T06:45:15;25.80;97.40
40291;DHT22;26000;48.304;13.626;2022-08-01T06:47:42;25.70;97.10
40291;DHT22;26000;48.304;13.626;2022-08-01T06:50:09;25.50;97.50
40291;DHT22;26000;48.304;13.626;2022-08-01T06:52:35;25.30;97.50
40291;DHT22;26000;48.304;13.626;2022-08-01T06:55:02;25.20;97.40
40291;DHT22;26000;48.304;13.626;2022-08-01T06:57:28;25.10;97.60
40291;DHT22;26000;48.304;13.626;2022-08-01T06:59:54;25.00;97.60
40291;DHT22;26000;48.304;13.626;2022-08-01T07:02:19;24.90;97.60
40291;DHT22;26000;48.304;13.626;2022-08-01T07:04:45;24.90;97.60
40291;DHT22;26000;48.304;13.626;2022-08-01T07:07:11;24.90;97.90
40291;DHT22;26000;48.304;13.626;2022-08-01T07:09:36;24.80;97.70
40291;DHT22;26000;48.304;13.626;2022-08-01T07:12:03;24.80;97.60
40291;DHT22;26000;48.304;13.626;2022-08-01T07:14:29;24.80;97.60
40291;DHT22;26000;48.304;13.626;2022-08-01T07:16:55;24.90;98.20
40291;DHT22;26000;48.304;13.626;2022-08-01T07:19:20;25.00;98.20
40291;DHT22;26000;48.304;13.626;2022-08-01T07:21:46;25.10;98.10
40291;DHT22;26000;48.304;13.626;2022-08-01T07:24:13;25.10;97.70
40291;DHT22;26000;48.304;13.626;2022-08-01T07:26:44;25.20;98.20
40291;DHT22;26000;48.304;13.626;2022-08-01T07:29:10;25.20;97.80
40291;DHT22;26000;48.304;13.626;2022-08-01T07:31:35;25.30;97.60
40291;DHT22;26000;48.304;13.626;2022-08-01T07:34:01;25.30;97.60
40291;DHT22;26000;48.304;13.626;2022-08-01T07:36:26;25.30;96.80
40291;DHT22;26000;48.304;13.626;2022-08-01T07:38:52;25.40;97.20
40291;DHT22;26000;48.304;13.626;2022-08-01T07:41:18;25.60;97.20
40291;DHT22;26000;48.304;13.626;2022-08-01T07:43:43;25.90;97.70
40291;DHT22;26000;48.304;13.626;2022-08-01T07:46:09;26.50;96.70
40291;DHT22;26000;48.304;13.626;2022-08-01T07:48:35;26.90;94.70
40291;DHT22;26000;48.304;13.626;2022-08-01T07:51:00;27.40;95.70
40291;DHT22;26000;48.304;13.626;2022-08-01T07:53:26;27.80;95.50
40291;DHT22;26000;48.304;13.626;2022-08-01T07:55:52;28.10;94.60
40291;DHT22;26000;48.304;13.626;2022-08-01T07:58:17;28.30;94.90
40291;DHT22;26000;48.304;13.626;2022-08-01T08:00:43;28.50;94.60
40291;DHT22;26000;48.304;13.626;2022-08-01T08:03:09;28.70;94.60
40291;DHT22;26000;48.304;13.626;2022-08-01T08:05:35;28.70;93.20
40291;DHT22;26000;48.304;13.626;2022-08-01T08:08:04;28.70;93.30
40291;DHT22;26000;48.304;13.626;2022-08-01T08:10:30;28.90;93.80
40291;DHT22;26000;48.304;13.626;2022-08-01T08:12:55;28.90;93.30
40291;DHT22;26000;48.304;13.626;2022-08-01T08:15:21;29.10;93.10
40291;DHT22;26000;48.304;13.626;2022-08-01T08:17:47;29.30;93.90
40291;DHT22;26000;48.304;13.626;2022-08-01T08:20:12;29.50;92.70
40291;DHT22;26000;48.304;13.626;2022-08-01T08:22:38;29.60;93.00
40291;DHT22;26000;48.304;13.626;2022-08-01T08:25:05;29.50;92.70
40291;DHT22;26000;48.304;13.626;2022-08-01T08:27:31;29.50;91.90
40291;DHT22;26000;48.304;13.626;2022-08-01T08:29:57;29.40;92.50
40291;DHT22;26000;48.304;13.626;2022-08-01T08:32:22;29.70;92.90
40291;DHT22;26000;48.304;13.626;2022-08-01T08:34:48;29.80;92.20
40291;DHT22;26000;48.304;13.626;2022-08-01T08:37:14;30.00;92.50
40291;DHT22;26000;48.304;13.626;2022-08-01T08:39:39;30.20;91.60
40291;DHT22;26000;48.304;13.626;2022-08-01T08:42:07;30.10;91.40
40291;DHT22;26000;48.304;13.626;2022-08-01T08:44:33;30.10;92.00
40291;DHT22;26000;48.304;13.626;2022-08-01T08:47:01;30.30;92.10
40291;DHT22;26000;48.304;13.626;2022-08-01T08:49:31;30.50;92.30
40291;DHT22;26000;48.304;13.626;2022-08-01T08:52:01;30.60;91.60
40291;DHT22;26000;48.304;13.626;2022-08-01T08:54:27;30.50;91.10
40291;DHT22;26000;48.304;13.626;2022-08-01T08:56:55;30.60;91.70
40291;DHT22;26000;48.304;13.626;2022-08-01T08:59:21;30.60;91.00
40291;DHT22;26000;48.304;13.626;2022-08-01T09:01:50;30.40;91.40
40291;DHT22;26000;48.304;13.626;2022-08-01T09:04:16;30.30;91.50
40291;DHT22;26000;48.304;13.626;2022-08-01T09:06:41;30.10;91.60
40291;DHT22;26000;48.304;13.626;2022-08-01T09:09:08;30.00;92.00
40291;DHT22;26000;48.304;13.626;2022-08-01T09:11:35;30.10;92.10
40291;DHT22;26000;48.304;13.626;2022-08-01T09:14:09;30.40;91.60
40291;DHT22;26000;48.304;13.626;2022-08-01T09:16:38;30.60;91.10
40291;DHT22;26000;48.304;13.626;2022-08-01T09:19:13;30.50;91.20
40291;DHT22;26000;48.304;13.626;2022-08-01T09:21:40;30.80;91.50
40291;DHT22;26000;48.304;13.626;2022-08-01T09:24:14;30.90;91.20
40291;DHT22;26000;48.304;13.626;2022-08-01T09:26:40;30.90;91.00
40291;DHT22;26000;48.304;13.626;2022-08-01T09:29:08;31.10;90.50
40291;DHT22;26000;48.304;13.626;2022-08-01T09:31:43;31.20;90.10
40291;DHT22;26000;48.304;13.626;2022-08-01T09:34:09;31.30;90.50
40291;DHT22;26000;48.304;13.626;2022-08-01T09:37:02;30.80;90.60
40291;DHT22;26000;48.304;13.626;2022-08-01T09:39:35;31.00;90.80
40291;DHT22;26000;48.304;13.626;2022-08-01T09:44:45;30.90;90.20
40291;DHT22;26000;48.304;13.626;2022-08-01T09:47:12;31.10;90.80
40291;DHT22;26000;48.304;13.626;2022-08-01T09:49:39;31.20;89.60
40291;DHT22;26000;48.304;13.626;2022-08-01T09:54:37;31.40;90.30
40291;DHT22;26000;48.304;13.626;2022-08-01T09:57:17;31.30;90.10
40291;DHT22;26000;48.304;13.626;2022-08-01T09:59:45;31.40;89.00
40291;DHT22;26000;48.304;13.626;2022-08-01T10:02:14;31.40;90.10
40291;DHT22;26000;48.304;13.626;2022-08-01T10:04:51;31.50;88.70
40291;DHT22;26000;48.304;13.626;2022-08-01T10:07:17;31.70;90.00
40291;DHT22;26000;48.304;13.626;2022-08-01T10:09:45;31.80;89.90
40291;DHT22;26000;48.304;13.626;2022-08-01T10:12:13;32.10;88.80
40291;DHT22;26000;48.304;13.626;2022-08-01T10:14:40;32.00;87.90
40291;DHT22;26000;48.304;13.626;2022-08-01T10:17:13;31.50;87.60
40291;DHT22;26000;48.304;13.626;2022-08-01T10:19:41;31.00;88.10
40291;DHT22;26000;48.304;13.626;2022-08-01T10:22:12;31.00;89.80
40291;DHT22;26000;48.304;13.626;2022-08-01T10:24:46;31.10;88.80
40291;DHT22;26000;48.304;13.626;2022-08-01T10:27:15;31.40;89.00
40291;DHT22;26000;48.304;13.626;2022-08-01T10:30:11;31.30;88.30
40291;DHT22;26000;48.304;13.626;2022-08-01T10:32:36;31.20;87.40
40291;DHT22;26000;48.304;13.626;2022-08-01T10:35:04;31.30;87.50
40291;DHT22;26000;48.304;13.626;2022-08-01T10:37:30;31.30;87.70
40291;DHT22;26000;48.304;13.626;2022-08-01T10:39:56;31.00;88.00
40291;DHT22;26000;48.304;13.626;2022-08-01T10:42:22;30.50;87.60
40291;DHT22;26000;48.304;13.626;2022-08-01T10:44:48;30.50;89.70
40291;DHT22;26000;48.304;13.626;2022-08-01T10:47:18;30.50;90.20
40291;DHT22;26000;48.304;13.626;2022-08-01T10:50:13;30.30;89.50
40291;DHT22;26000;48.304;13.626;2022-08-01T10:52:41;30.50;90.20
40291;DHT22;26000;48.304;13.626;2022-08-01T10:55:08;30.80;90.40
40291;DHT22;26000;48.304;13.626;2022-08-01T10:57:45;30.90;88.90
40291;DHT22;26000;48.304;13.626;2022-08-01T11:00:21;31.30;86.80
40291;DHT22;26000;48.304;13.626;2022-08-01T11:02:58;31.30;89.30
40291;DHT22;26000;48.304;13.626;2022-08-01T11:05:27;31.00;87.40
40291;DHT22;26000;48.304;13.626;2022-08-01T11:07:54;30.50;88.80
40291;DHT22;26000;48.304;13.626;2022-08-01T11:10:39;30.30;88.50
40291;DHT22;26000;48.304;13.626;2022-08-01T11:13:05;30.00;88.40
40291;DHT22;26000;48.304;13.626;2022-08-01T11:15:34;29.70;88.90
40291;DHT22;26000;48.304;13.626;2022-08-01T11:18:02;29.30;88.50
40291;DHT22;26000;48.304;13.626;2022-08-01T11:20:30;29.00;90.00
40291;DHT22;26000;48.304;13.626;2022-08-01T11:30:44;28.70;90.70
40291;DHT22;26000;48.304;13.626;2022-08-01T11:33:10;28.70;90.60
40291;DHT22;26000;48.304;13.626;2022-08-01T11:35:37;28.80;91.10
40291;DHT22;26000;48.304;13.626;2022-08-01T11:38:24;28.90;91.50
40291;DHT22;26000;48.304;13.626;2022-08-01T11:47:06;29.50;88.70
40291;DHT22;26000;48.304;13.626;2022-08-01T11:49:33;29.30;90.20
40291;DHT22;26000;48.304;13.626;2022-08-01T11:54:33;29.00;91.10
40291;DHT22;26000;48.304;13.626;2022-08-01T11:57:03;28.60;93.00
40291;DHT22;26000;48.304;13.626;2022-08-01T11:59:36;28.40;93.70
40291;DHT22;26000;48.304;13.626;2022-08-01T12:02:02;28.00;94.50
40291;DHT22;26000;48.304;13.626;2022-08-01T12:04:44;27.70;94.90
40291;DHT22;26000;48.304;13.626;2022-08-01T12:07:14;27.70;94.90
40291;DHT22;26000;48.304;13.626;2022-08-01T12:09:40;27.80;96.30
40291;DHT22;26000;48.304;13.626;2022-08-01T12:12:06;27.90;97.20
40291;DHT22;26000;48.304;13.626;2022-08-01T12:14:32;28.10;96.90
40291;DHT22;26000;48.304;13.626;2022-08-01T12:16:57;28.20;95.10
40291;DHT22;26000;48.304;13.626;2022-08-01T12:19:24;28.20;94.80
40291;DHT22;26000;48.304;13.626;2022-08-01T12:22:13;28.20;95.00
40291;DHT22;26000;48.304;13.626;2022-08-01T12:24:41;28.10;94.20
40291;DHT22;26000;48.304;13.626;2022-08-01T12:27:09;28.00;94.50
40291;DHT22;26000;48.304;13.626;2022-08-01T12:29:42;28.00;94.90
40291;DHT22;26000;48.304;13.626;2022-08-01T12:32:22;28.10;95.50
40291;DHT22;26000;48.304;13.626;2022-08-01T12:34:49;28.30;94.40
40291;DHT22;26000;48.304;13.626;2022-08-01T12:37:16;28.50;93.60
40291;DHT22;26000;48.304;13.626;2022-08-01T12:39:43;28.70;94.10
40291;DHT22;26000;48.304;13.626;2022-08-01T12:42:09;28.90;93.20
40291;DHT22;26000;48.304;13.626;2022-08-01T12:44:36;28.80;93.20
40291;DHT22;26000;48.304;13.626;2022-08-01T12:47:04;28.70;92.40
40291;DHT22;26000;48.304;13.626;2022-08-01T12:49:31;28.10;92.10
40291;DHT22;26000;48.304;13.626;2022-08-01T12:51:57;27.90;93.30
40291;DHT22;26000;48.304;13.626;2022-08-01T12:54:23;27.70;93.60
40291;DHT22;26000;48.304;13.626;2022-08-01T12:56:51;27.60;93.70
40291;DHT22;26000;48.304;13.626;2022-08-01T12:59:23;27.60;93.70
40291;DHT22;26000;48.304;13.626;2022-08-01T13:01:51;27.50;94.30
40291;DHT22;26000;48.304;13.626;2022-08-01T13:04:18;27.60;93.70
40291;DHT22;26000;48.304;13.626;2022-08-01T13:06:44;27.50;93.20
40291;DHT22;26000;48.304;13.626;2022-08-01T13:09:10;27.50;93.30
40291;DHT22;26000;48.304;13.626;2022-08-01T13:11:37;27.60;93.00
40291;DHT22;26000;48.304;13.626;2022-08-01T13:14:03;27.60;93.90
40291;DHT22;26000;48.304;13.626;2022-08-01T13:16:29;27.70;93.70
40291;DHT22;26000;48.304;13.626;2022-08-01T13:18:56;27.70;93.20
40291;DHT22;26000;48.304;13.626;2022-08-01T13:21:31;27.70;92.70
40291;DHT22;26000;48.304;13.626;2022-08-01T13:27:04;27.90;92.50
40291;DHT22;26000;48.304;13.626;2022-08-01T13:29:33;28.00;93.20
40291;DHT22;26000;48.304;13.626;2022-08-01T13:32:15;28.00;92.20
40291;DHT22;26000;48.304;13.626;2022-08-01T13:34:41;28.00;92.10
40291;DHT22;26000;48.304;13.626;2022-08-01T13:37:07;28.00;91.90
40291;DHT22;26000;48.304;13.626;2022-08-01T13:39:33;28.00;92.00
40291;DHT22;26000;48.304;13.626;2022-08-01T13:42:12;28.00;92.20
40291;DHT22;26000;48.304;13.626;2022-08-01T13:44:38;28.00;91.90
40291;DHT22;26000;48.304;13.626;2022-08-01T13:47:04;28.00;92.70
40291;DHT22;26000;48.304;13.626;2022-08-01T13:49:30;28.00;92.50
40291;DHT22;26000;48.304;13.626;2022-08-01T13:51:56;28.10;91.90
40291;DHT22;26000;48.304;13.626;2022-08-01T13:54:22;28.10;91.40
40291;DHT22;26000;48.304;13.626;2022-08-01T13:56:49;28.20;91.80
40291;DHT22;26000;48.304;13.626;2022-08-01T13:59:14;28.20;92.50
40291;DHT22;26000;48.304;13.626;2022-08-01T14:01:40;28.30;92.10
40291;DHT22;26000;48.304;13.626;2022-08-01T14:04:06;28.20;91.60
40291;DHT22;26000;48.304;13.626;2022-08-01T14:06:33;28.10;91.70
40291;DHT22;26000;48.304;13.626;2022-08-01T14:09:00;28.10;92.20
40291;DHT22;26000;48.304;13.626;2022-08-01T14:11:26;28.00;92.10
40291;DHT22;26000;48.304;13.626;2022-08-01T14:13:52;27.80;93.00
40291;DHT22;26000;48.304;13.626;2022-08-01T14:16:17;27.70;92.00
40291;DHT22;26000;48.304;13.626;2022-08-01T14:18:43;27.50;92.50
40291;DHT22;26000;48.304;13.626;2022-08-01T14:21:09;27.40;93.30
40291;DHT22;26000;48.304;13.626;2022-08-01T14:23:34;27.20;94.00
40291;DHT22;26000;48.304;13.626;2022-08-01T14:26:00;26.90;94.70
40291;DHT22;26000;48.304;13.626;2022-08-01T14:28:26;26.80;96.00
40291;DHT22;26000;48.304;13.626;2022-08-01T14:30:53;26.70;96.70
40291;DHT22;26000;48.304;13.626;2022-08-01T14:33:21;26.40;97.60
40291;DHT22;26000;48.304;13.626;2022-08-01T14:35:47;26.30;97.40
40291;DHT22;26000;48.304;13.626;2022-08-01T14:38:12;26.10;97.70
40291;DHT22;26000;48.304;13.626;2022-08-01T14:40:38;26.00;98.60
40291;DHT22;26000;48.304;13.626;2022-08-01T14:43:06;26.00;99.20
40291;DHT22;26000;48.304;13.626;2022-08-01T14:45:32;26.00;99.20
40291;DHT22;26000;48.304;13.626;2022-08-01T14:47:58;26.10;99.90
40291;DHT22;26000;48.304;13.626;2022-08-01T14:50:24;26.10;99.90
40291;DHT22;26000;48.304;13.626;2022-08-01T14:52:52;26.10;99.90
40291;DHT22;26000;48.304;13.626;2022-08-01T14:55:18;26.10;99.40
40291;DHT22;26000;48.304;13.626;2022-08-01T14:57:48;26.20;99.40
40291;DHT22;26000;48.304;13.626;2022-08-01T15:00:14;26.30;99.90
40291;DHT22;26000;48.304;13.626;2022-08-01T15:02:40;26.20;99.90
40291;DHT22;26000;48.304;13.626;2022-08-01T15:05:07;26.20;99.90
40291;DHT22;26000;48.304;13.626;2022-08-01T15:07:33;26.10;99.90
40291;DHT22;26000;48.304;13.626;2022-08-01T15:09:59;25.90;99.90
40291;DHT22;26000;48.304;13.626;2022-08-01T15:12:25;25.70;99.90
40291;DHT22;26000;48.304;13.626;2022-08-01T15:14:51;25.60;99.90
40291;DHT22;26000;48.304;13.626;2022-08-01T15:19:53;25.60;99.90
40291;DHT22;26000;48.304;13.626;2022-08-01T15:22:20;25.60;99.90
40291;DHT22;26000;48.304;13.626;2022-08-01T15:24:47;25.50;99.90
40291;DHT22;26000;48.304;13.626;2022-08-01T15:27:13;25.60;99.90
40291;DHT22;26000;48.304;13.626;2022-08-01T15:29:39;25.60;99.90
40291;DHT22;26000;48.304;13.626;2022-08-01T15:32:06;25.70;99.90
40291;DHT22;26000;48.304;13.626;2022-08-01T15:34:33;25.80;99.90
40291;DHT22;26000;48.304;13.626;2022-08-01T15:36:59;25.90;99.90
40291;DHT22;26000;48.304;13.626;2022-08-01T15:39:24;26.00;99.90
40291;DHT22;26000;48.304;13.626;2022-08-01T15:41:50;26.20;99.90
40291;DHT22;26000;48.304;13.626;2022-08-01T15:44:16;26.20;99.90
40291;DHT22;26000;48.304;13.626;2022-08-01T15:46:47;26.30;99.90
40291;DHT22;26000;48.304;13.626;2022-08-01T15:49:13;26.30;99.90
40291;DHT22;26000;48.304;13.626;2022-08-01T15:51:40;26.20;99.90
40291;DHT22;26000;48.304;13.626;2022-08-01T15:54:06;26.20;99.90
40291;DHT22;26000;48.304;13.626;2022-08-01T15:56:32;26.10;99.90
40291;DHT22;26000;48.304;13.626;2022-08-01T15:58:58;26.20;99.90